sensor_id;sensor_type;location;lat;lon;timestamp;temperature;humidity
11152;DHT22;5630;49.342;10.802;2023-07-29T00:00:49;17.50;99.90
11152;DHT22;5630;49.342;10.802;2023-07-29T00:03:15;17.50;99.90
11152;DHT22;5630;49.342;10.802;2023-07-29T00:05:40;17.50;99.90
11152;DHT22;5630;49.342;10.802;2023-07-29T00:08:06;17.50;99.90
11152;DHT22;5630;49.342;10.802;2023-07-29T00:10:32;17.50;99.90
11152;DHT22;5630;49.342;10.802;2023-07-29T00:13:00;17.50;99.90
11152;DHT22;5630;49.342;10.802;2023-07-29T00:15:26;17.50;99.90
11152;DHT22;5630;49.342;10.802;2023-07-29T00:17:52;17.50;99.90
11152;DHT22;5630;49.342;10.802;2023-07-29T00:20:17;17.50;99.90
11152;DHT22;5630;49.342;10.802;2023-07-29T00:22:43;17.50;99.90
11152;DHT22;5630;49.342;10.802;2023-07-29T00:25:08;17.40;99.90
11152;DHT22;5630;49.342;10.802;2023-07-29T00:27:34;17.40;99.90
11152;DHT22;5630;49.342;10.802;2023-07-29T00:30:00;17.40;99.90
11152;DHT22;5630;49.342;10.802;2023-07-29T00:32:28;17.40;99.90
11152;DHT22;5630;49.342;10.802;2023-07-29T00:34:54;17.30;99.90
11152;DHT22;5630;49.342;10.802;2023-07-29T00:37:20;17.30;99.90
11152;DHT22;5630;49.342;10.802;2023-07-29T00:39:46;17.30;99.90
11152;DHT22;5630;49.342;10.802;2023-07-29T00:42:11;17.20;99.90
11152;DHT22;5630;49.342;10.802;2023-07-29T00:44:37;17.20;99.90
11152;DHT22;5630;49.342;10.802;2023-07-29T00:47:03;17.20;99.90
11152;DHT22;5630;49.342;10.802;2023-07-29T00:49:30;17.20;99.90
11152;DHT22;5630;49.342;10.802;2023-07-29T00:51:55;17.20;99.90
11152;DHT22;5630;49.342;10.802;2023-07-29T00:54:21;17.10;99.90
11152;DHT22;5630;49.342;10.802;2023-07-29T00:56:47;17.20;99.90
11152;DHT22;5630;49.342;10.802;2023-07-29T00:59:13;17.10;99.90
11152;DHT22;5630;49.342;10.802;2023-07-29T01:01:39;17.10;99.90
11152;DHT22;5630;49.342;10.802;2023-07-29T01:04:04;17.00;99.90
11152;DHT22;5630;49.342;10.802;2023-07-29T01:09:25;17.10;99.90
11152;DHT22;5630;49.342;10.802;2023-07-29T01:12:13;17.00;99.90
11152;DHT22;5630;49.342;10.802;2023-07-29T01:14:43;17.00;99.90
11152;DHT22;5630;49.342;10.802;2023-07-29T01:17:15;17.10;99.90
11152;DHT22;5630;49.342;10.802;2023-07-29T01:19:55;17.00;99.90
11152;DHT22;5630;49.342;10.802;2023-07-29T01:22:25;17.00;99.90
11152;DHT22;5630;49.342;10.802;2023-07-29T01:24:51;17.00;99.90
11152;DHT22;5630;49.342;10.802;2023-07-29T01:27:16;17.00;99.90
11152;DHT22;5630;49.342;10.802;2023-07-29T01:29:42;17.00;99.90
11152;DHT22;5630;49.342;10.802;2023-07-29T01:32:11;17.00;99.90
11152;DHT22;5630;49.342;10.802;2023-07-29T01:34:47;17.00;99.90
11152;DHT22;5630;49.342;10.802;2023-07-29T01:37:19;17.00;99.90
11152;DHT22;5630;49.342;10.802;2023-07-29T01:39:47;17.00;99.90
11152;DHT22;5630;49.342;10.802;2023-07-29T01:42:13;17.00;99.90
11152;DHT22;5630;49.342;10.802;2023-07-29T01:44:39;16.90;99.90
11152;DHT22;5630;49.342;10.802;2023-07-29T01:47:07;16.90;99.90
11152;DHT22;5630;49.342;10.802;2023-07-29T01:49:33;17.00;99.90
11152;DHT22;5630;49.342;10.802;2023-07-29T01:51:59;16.90;99.90
11152;DHT22;5630;49.342;10.802;2023-07-29T01:54:24;16.90;99.90
11152;DHT22;5630;49.342;10.802;2023-07-29T01:56:50;16.90;99.90
11152;DHT22;5630;49.342;10.802;2023-07-29T01:59:16;16.90;99.90
11152;DHT22;5630;49.342;10.802;2023-07-29T02:01:42;16.90;99.90
11152;DHT22;5630;49.342;10.802;2023-07-29T02:04:08;16.80;99.90
11152;DHT22;5630;49.342;10.802;2023-07-29T02:06:33;16.80;99.90
11152;DHT22;5630;49.342;10.802;2023-07-29T02:08:59;16.80;99.90
11152;DHT22;5630;49.342;10.802;2023-07-29T02:11:24;16.80;99.90
11152;DHT22;5630;49.342;10.802;2023-07-29T02:13:53;16.70;99.90
11152;DHT22;5630;49.342;10.802;2023-07-29T02:16:19;16.70;99.90
11152;DHT22;5630;49.342;10.802;2023-07-29T02:18:45;16.70;99.90
11152;DHT22;5630;49.342;10.802;2023-07-29T02:21:11;16.70;99.90
11152;DHT22;5630;49.342;10.802;2023-07-29T02:23:36;16.70;99.90
11152;DHT22;5630;49.342;10.802;2023-07-29T02:26:02;16.70;99.90
11152;DHT22;5630;49.342;10.802;2023-07-29T02:28:27;16.60;99.90
11152;DHT22;5630;49.342;10.802;2023-07-29T02:31:21;16.60;99.90
11152;DHT22;5630;49.342;10.802;2023-07-29T02:33:47;16.60;99.90
11152;DHT22;5630;49.342;10.802;2023-07-29T02:36:13;16.60;99.90
11152;DHT22;5630;49.342;10.802;2023-07-29T02:38:40;16.50;99.90
11152;DHT22;5630;49.342;10.802;2023-07-29T02:41:05;16.60;99.90
11152;DHT22;5630;49.342;10.802;2023-07-29T02:43:31;16.50;99.90
11152;DHT22;5630;49.342;10.802;2023-07-29T02:45:57;16.50;99.90
11152;DHT22;5630;49.342;10.802;2023-07-29T02:48:22;16.50;99.90
11152;DHT22;5630;49.342;10.802;2023-07-29T02:50:48;16.50;99.90
11152;DHT22;5630;49.342;10.802;2023-07-29T02:53:13;16.50;99.90
11152;DHT22;5630;49.342;10.802;2023-07-29T02:55:40;16.50;99.90
11152;DHT22;5630;49.342;10.802;2023-07-29T02:58:06;16.40;99.90
11152;DHT22;5630;49.342;10.802;2023-07-29T03:00:32;16.40;99.90
11152;DHT22;5630;49.342;10.802;2023-07-29T03:02:58;16.40;99.90
11152;DHT22;5630;49.342;10.802;2023-07-29T03:05:24;16.40;99.90
11152;DHT22;5630;49.342;10.802;2023-07-29T03:07:50;16.40;99.90
11152;DHT22;5630;49.342;10.802;2023-07-29T03:10:15;16.40;99.90
11152;DHT22;5630;49.342;10.802;2023-07-29T03:12:41;16.40;99.90
11152;DHT22;5630;49.342;10.802;2023-07-29T03:15:07;16.40;99.90
11152;DHT22;5630;49.342;10.802;2023-07-29T03:17:32;16.50;99.90
11152;DHT22;5630;49.342;10.802;2023-07-29T03:19:58;16.40;99.90
11152;DHT22;5630;49.342;10.802;2023-07-29T03:22:24;16.50;99.90
11152;DHT22;5630;49.342;10.802;2023-07-29T03:24:49;16.50;99.90
11152;DHT22;5630;49.342;10.802;2023-07-29T03:27:15;16.50;99.90
11152;DHT22;5630;49.342;10.802;2023-07-29T03:29:41;16.50;99.90
11152;DHT22;5630;49.342;10.802;2023-07-29T03:32:07;16.50;99.90
11152;DHT22;5630;49.342;10.802;2023-07-29T03:34:32;16.60;99.90
11152;DHT22;5630;49.342;10.802;2023-07-29T03:37:00;16.60;99.90
11152;DHT22;5630;49.342;10.802;2023-07-29T03:39:26;16.60;99.90
11152;DHT22;5630;49.342;10.802;2023-07-29T03:41:52;16.60;99.90
11152;DHT22;5630;49.342;10.802;2023-07-29T03:44:18;16.60;99.90
11152;DHT22;5630;49.342;10.802;2023-07-29T03:46:44;16.60;99.90
11152;DHT22;5630;49.342;10.802;2023-07-29T03:49:10;16.60;99.90
11152;DHT22;5630;49.342;10.802;2023-07-29T03:51:35;16.60;99.90
11152;DHT22;5630;49.342;10.802;2023-07-29T03:54:01;16.60;99.90
11152;DHT22;5630;49.342;10.802;2023-07-29T03:56:27;16.60;99.90
11152;DHT22;5630;49.342;10.802;2023-07-29T03:58:52;16.60;99.90
11152;DHT22;5630;49.342;10.802;2023-07-29T04:01:18;16.60;99.90
11152;DHT22;5630;49.342;10.802;2023-07-29T04:03:45;16.60;99.90
11152;DHT22;5630;49.342;10.802;2023-07-29T04:06:11;16.60;99.90
11152;DHT22;5630;49.342;10.802;2023-07-29T04:08:37;16.60;99.90
11152;DHT22;5630;49.342;10.802;2023-07-29T04:11:03;16.60;99.90
11152;DHT22;5630;49.342;10.802;2023-07-29T04:13:28;16.60;99.90
11152;DHT22;5630;49.342;10.802;2023-07-29T04:15:54;16.60;99.90
11152;DHT22;5630;49.342;10.802;2023-07-29T04:18:19;16.60;99.90
11152;DHT22;5630;49.342;10.802;2023-07-29T04:20:45;16.50;99.90
11152;DHT22;5630;49.342;10.802;2023-07-29T04:23:10;16.60;99.90
11152;DHT22;5630;49.342;10.802;2023-07-29T04:25:36;16.50;99.90
11152;DHT22;5630;49.342;10.802;2023-07-29T04:28:01;16.60;99.90
11152;DHT22;5630;49.342;10.802;2023-07-29T04:30:28;16.60;99.90
11152;DHT22;5630;49.342;10.802;2023-07-29T04:32:54;16.70;99.90
11152;DHT22;5630;49.342;10.802;2023-07-29T04:35:20;16.60;99.90
11152;DHT22;5630;49.342;10.802;2023-07-29T04:37:45;16.70;99.90
11152;DHT22;5630;49.342;10.802;2023-07-29T04:40:13;16.60;99.90
11152;DHT22;5630;49.342;10.802;2023-07-29T04:42:39;16.70;99.90
11152;DHT22;5630;49.342;10.802;2023-07-29T04:45:05;16.70;99.90
11152;DHT22;5630;49.342;10.802;2023-07-29T04:47:31;16.70;99.90
11152;DHT22;5630;49.342;10.802;2023-07-29T04:49:56;16.70;99.90
11152;DHT22;5630;49.342;10.802;2023-07-29T04:52:22;16.80;99.90
11152;DHT22;5630;49.342;10.802;2023-07-29T04:54:47;16.80;99.90
11152;DHT22;5630;49.342;10.802;2023-07-29T04:57:13;16.90;99.90
11152;DHT22;5630;49.342;10.802;2023-07-29T04:59:38;16.90;99.90
11152;DHT22;5630;49.342;10.802;2023-07-29T05:02:04;16.90;99.90
11152;DHT22;5630;49.342;10.802;2023-07-29T05:04:29;16.90;99.90
11152;DHT22;5630;49.342;10.802;2023-07-29T05:06:55;17.00;99.90
11152;DHT22;5630;49.342;10.802;2023-07-29T05:09:21;17.00;99.90
11152;DHT22;5630;49.342;10.802;2023-07-29T05:11:46;17.10;99.90
11152;DHT22;5630;49.342;10.802;2023-07-29T05:14:16;17.00;99.90
11152;DHT22;5630;49.342;10.802;2023-07-29T05:16:42;17.10;99.90
11152;DHT22;5630;49.342;10.802;2023-07-29T05:19:08;17.10;99.90
11152;DHT22;5630;49.342;10.802;2023-07-29T05:21:34;17.10;99.90
11152;DHT22;5630;49.342;10.802;2023-07-29T05:24:00;17.20;99.90
11152;DHT22;5630;49.342;10.802;2023-07-29T05:26:25;17.20;99.90
11152;DHT22;5630;49.342;10.802;2023-07-29T05:28:51;17.20;99.90
11152;DHT22;5630;49.342;10.802;2023-07-29T05:31:17;17.20;99.90
11152;DHT22;5630;49.342;10.802;2023-07-29T05:33:43;17.30;99.90
11152;DHT22;5630;49.342;10.802;2023-07-29T05:36:08;17.30;99.90
11152;DHT22;5630;49.342;10.802;2023-07-29T05:38:34;17.30;99.90
11152;DHT22;5630;49.342;10.802;2023-07-29T05:40:59;17.30;99.90
11152;DHT22;5630;49.342;10.802;2023-07-29T05:43:26;17.30;99.90
11152;DHT22;5630;49.342;10.802;2023-07-29T05:45:52;17.30;99.90
11152;DHT22;5630;49.342;10.802;2023-07-29T05:48:19;17.30;99.90
11152;DHT22;5630;49.342;10.802;2023-07-29T05:50:45;17.40;99.90
11152;DHT22;5630;49.342;10.802;2023-07-29T05:53:11;17.40;99.90
11152;DHT22;5630;49.342;10.802;2023-07-29T05:55:36;17.40;99.90
11152;DHT22;5630;49.342;10.802;2023-07-29T05:58:02;17.40;99.90
11152;DHT22;5630;49.342;10.802;2023-07-29T06:00:27;17.40;99.90
11152;DHT22;5630;49.342;10.802;2023-07-29T06:02:53;17.40;99.90
11152;DHT22;5630;49.342;10.802;2023-07-29T06:05:18;17.40;99.90
11152;DHT22;5630;49.342;10.802;2023-07-29T06:07:44;17.50;99.90
11152;DHT22;5630;49.342;10.802;2023-07-29T06:10:14;17.50;99.90
11152;DHT22;5630;49.342;10.802;2023-07-29T06:12:42;17.50;99.90
11152;DHT22;5630;49.342;10.802;2023-07-29T06:15:08;17.50;99.90
11152;DHT22;5630;49.342;10.802;2023-07-29T06:17:34;17.50;99.90
11152;DHT22;5630;49.342;10.802;2023-07-29T06:20:00;17.50;99.90
11152;DHT22;5630;49.342;10.802;2023-07-29T06:22:25;17.50;99.90
11152;DHT22;5630;49.342;10.802;2023-07-29T06:24:51;17.50;99.90
11152;DHT22;5630;49.342;10.802;2023-07-29T06:27:16;17.50;99.90
11152;DHT22;5630;49.342;10.802;2023-07-29T06:29:42;17.40;99.90
11152;DHT22;5630;49.342;10.802;2023-07-29T06:32:07;17.40;99.90
11152;DHT22;5630;49.342;10.802;2023-07-29T06:34:33;17.40;99.90
11152;DHT22;5630;49.342;10.802;2023-07-29T06:36:58;17.40;99.90
11152;DHT22;5630;49.342;10.802;2023-07-29T06:39:24;17.40;99.90
11152;DHT22;5630;49.342;10.802;2023-07-29T06:41:49;17.40;99.90
11152;DHT22;5630;49.342;10.802;2023-07-29T06:44:15;17.40;99.90
11152;DHT22;5630;49.342;10.802;2023-07-29T06:46:41;17.40;99.90
11152;DHT22;5630;49.342;10.802;2023-07-29T06:49:07;17.40;99.90
11152;DHT22;5630;49.342;10.802;2023-07-29T06:51:32;17.40;99.90
11152;DHT22;5630;49.342;10.802;2023-07-29T06:54:00;17.40;99.90
11152;DHT22;5630;49.342;10.802;2023-07-29T06:56:26;17.40;99.90
11152;DHT22;5630;49.342;10.802;2023-07-29T06:58:52;17.50;99.90
11152;DHT22;5630;49.342;10.802;2023-07-29T07:01:17;17.50;99.90
11152;DHT22;5630;49.342;10.802;2023-07-29T07:03:43;17.50;99.90
11152;DHT22;5630;49.342;10.802;2023-07-29T07:06:08;17.50;99.90
11152;DHT22;5630;49.342;10.802;2023-07-29T07:08:34;17.50;99.90
11152;DHT22;5630;49.342;10.802;2023-07-29T07:10:59;17.60;99.90
11152;DHT22;5630;49.342;10.802;2023-07-29T07:13:25;17.70;99.90
11152;DHT22;5630;49.342;10.802;2023-07-29T07:15:50;17.70;99.90
11152;DHT22;5630;49.342;10.802;2023-07-29T07:18:19;17.80;99.90
11152;DHT22;5630;49.342;10.802;2023-07-29T07:20:48;17.90;99.90
11152;DHT22;5630;49.342;10.802;2023-07-29T07:23:15;17.90;99.90
11152;DHT22;5630;49.342;10.802;2023-07-29T07:25:41;18.00;99.90
11152;DHT22;5630;49.342;10.802;2023-07-29T07:28:08;18.00;99.90
11152;DHT22;5630;49.342;10.802;2023-07-29T07:30:34;18.10;99.90
11152;DHT22;5630;49.342;10.802;2023-07-29T07:33:00;18.10;99.90
11152;DHT22;5630;49.342;10.802;2023-07-29T07:35:26;18.20;99.90
11152;DHT22;5630;49.342;10.802;2023-07-29T07:37:52;18.10;99.90
11152;DHT22;5630;49.342;10.802;2023-07-29T07:40:17;18.20;99.90
11152;DHT22;5630;49.342;10.802;2023-07-29T07:42:43;18.20;99.90
11152;DHT22;5630;49.342;10.802;2023-07-29T07:45:08;18.30;99.90
11152;DHT22;5630;49.342;10.802;2023-07-29T07:47:34;18.30;99.90
11152;DHT22;5630;49.342;10.802;2023-07-29T07:49:59;18.30;99.90
11152;DHT22;5630;49.342;10.802;2023-07-29T07:52:25;18.40;99.90
11152;DHT22;5630;49.342;10.802;2023-07-29T07:54:54;18.40;99.90
11152;DHT22;5630;49.342;10.802;2023-07-29T07:57:23;18.40;99.90
11152;DHT22;5630;49.342;10.802;2023-07-29T07:59:48;18.40;99.90
11152;DHT22;5630;49.342;10.802;2023-07-29T08:02:14;18.40;99.90
11152;DHT22;5630;49.342;10.802;2023-07-29T08:04:40;18.40;99.90
11152;DHT22;5630;49.342;10.802;2023-07-29T08:07:05;18.40;99.90
11152;DHT22;5630;49.342;10.802;2023-07-29T08:09:31;18.40;99.90
11152;DHT22;5630;49.342;10.802;2023-07-29T08:11:56;18.40;99.90
11152;DHT22;5630;49.342;10.802;2023-07-29T08:14:22;18.40;99.90
11152;DHT22;5630;49.342;10.802;2023-07-29T08:16:48;18.40;99.90
11152;DHT22;5630;49.342;10.802;2023-07-29T08:19:13;18.40;99.90
11152;DHT22;5630;49.342;10.802;2023-07-29T08:21:39;18.40;99.90
11152;DHT22;5630;49.342;10.802;2023-07-29T08:24:04;18.40;99.90
11152;DHT22;5630;49.342;10.802;2023-07-29T08:26:30;18.40;99.90
11152;DHT22;5630;49.342;10.802;2023-07-29T08:28:55;18.40;99.90
11152;DHT22;5630;49.342;10.802;2023-07-29T08:31:21;18.40;99.90
11152;DHT22;5630;49.342;10.802;2023-07-29T08:33:46;18.40;99.90
11152;DHT22;5630;49.342;10.802;2023-07-29T08:36:12;18.50;99.90
11152;DHT22;5630;49.342;10.802;2023-07-29T08:38:37;18.40;99.90
11152;DHT22;5630;49.342;10.802;2023-07-29T08:41:14;18.40;99.90
11152;DHT22;5630;49.342;10.802;2023-07-29T08:43:56;18.40;99.90
11152;DHT22;5630;49.342;10.802;2023-07-29T08:46:25;18.40;99.90
11152;DHT22;5630;49.342;10.802;2023-07-29T08:48:51;18.40;99.90
11152;DHT22;5630;49.342;10.802;2023-07-29T08:51:18;18.40;99.90
11152;DHT22;5630;49.342;10.802;2023-07-29T08:53:45;18.40;99.90
11152;DHT22;5630;49.342;10.802;2023-07-29T08:56:11;18.30;99.90
11152;DHT22;5630;49.342;10.802;2023-07-29T08:58:37;18.30;99.90
11152;DHT22;5630;49.342;10.802;2023-07-29T09:01:05;18.30;99.90
11152;DHT22;5630;49.342;10.802;2023-07-29T09:03:31;18.30;99.90
11152;DHT22;5630;49.342;10.802;2023-07-29T09:05:58;18.40;99.90
11152;DHT22;5630;49.342;10.802;2023-07-29T09:08:25;18.40;99.90
11152;DHT22;5630;49.342;10.802;2023-07-29T09:10:51;18.50;99.90
11152;DHT22;5630;49.342;10.802;2023-07-29T09:13:17;18.50;99.90
11152;DHT22;5630;49.342;10.802;2023-07-29T09:15:42;18.50;99.90
11152;DHT22;5630;49.342;10.802;2023-07-29T09:18:16;18.50;99.90
11152;DHT22;5630;49.342;10.802;2023-07-29T09:20:42;18.50;99.90
11152;DHT22;5630;49.342;10.802;2023-07-29T09:23:09;18.40;99.90
11152;DHT22;5630;49.342;10.802;2023-07-29T09:25:39;18.50;99.90
11152;DHT22;5630;49.342;10.802;2023-07-29T09:28:12;18.50;99.90
11152;DHT22;5630;49.342;10.802;2023-07-29T09:30:39;18.50;99.90
11152;DHT22;5630;49.342;10.802;2023-07-29T09:33:06;18.50;99.90
11152;DHT22;5630;49.342;10.802;2023-07-29T09:35:34;18.60;99.90
11152;DHT22;5630;49.342;10.802;2023-07-29T09:38:00;18.60;99.90
11152;DHT22;5630;49.342;10.802;2023-07-29T09:40:25;18.60;99.90
11152;DHT22;5630;49.342;10.802;2023-07-29T09:42:55;18.70;99.90
11152;DHT22;5630;49.342;10.802;2023-07-29T09:45:24;18.80;99.90
11152;DHT22;5630;49.342;10.802;2023-07-29T09:47:50;18.90;99.90
11152;DHT22;5630;49.342;10.802;2023-07-29T09:50:16;18.90;99.90
11152;DHT22;5630;49.342;10.802;2023-07-29T09:52:43;19.00;99.90
11152;DHT22;5630;49.342;10.802;2023-07-29T09:55:19;19.10;99.90
11152;DHT22;5630;49.342;10.802;2023-07-29T09:57:45;19.10;99.90
11152;DHT22;5630;49.342;10.802;2023-07-29T10:00:11;19.20;99.90
11152;DHT22;5630;49.342;10.802;2023-07-29T10:02:42;19.30;99.90
11152;DHT22;5630;49.342;10.802;2023-07-29T10:05:09;19.30;99.90
11152;DHT22;5630;49.342;10.802;2023-07-29T10:07:39;19.30;99.90
11152;DHT22;5630;49.342;10.802;2023-07-29T10:10:06;19.30;99.90
11152;DHT22;5630;49.342;10.802;2023-07-29T10:12:33;19.40;99.90
11152;DHT22;5630;49.342;10.802;2023-07-29T10:15:04;19.40;99.90
11152;DHT22;5630;49.342;10.802;2023-07-29T10:17:32;19.50;99.90
11152;DHT22;5630;49.342;10.802;2023-07-29T10:19:58;19.60;99.90
11152;DHT22;5630;49.342;10.802;2023-07-29T10:22:27;19.50;99.90
11152;DHT22;5630;49.342;10.802;2023-07-29T10:25:02;19.60;99.90
11152;DHT22;5630;49.342;10.802;2023-07-29T10:27:31;19.60;99.90
11152;DHT22;5630;49.342;10.802;2023-07-29T10:30:00;19.70;99.90
11152;DHT22;5630;49.342;10.802;2023-07-29T10:32:28;19.70;99.90
11152;DHT22;5630;49.342;10.802;2023-07-29T10:34:54;19.60;99.90
11152;DHT22;5630;49.342;10.802;2023-07-29T10:37:21;19.70;99.90
11152;DHT22;5630;49.342;10.802;2023-07-29T10:39:54;20.00;99.90
11152;DHT22;5630;49.342;10.802;2023-07-29T10:42:20;20.40;99.90
11152;DHT22;5630;49.342;10.802;2023-07-29T10:44:47;20.50;99.90
11152;DHT22;5630;49.342;10.802;2023-07-29T10:47:24;21.00;99.90
11152;DHT22;5630;49.342;10.802;2023-07-29T10:54:54;21.90;99.90
11152;DHT22;5630;49.342;10.802;2023-07-29T10:59:57;22.60;99.90
11152;DHT22;5630;49.342;10.802;2023-07-29T11:02:32;22.60;99.90
11152;DHT22;5630;49.342;10.802;2023-07-29T11:04:58;22.60;99.90
11152;DHT22;5630;49.342;10.802;2023-07-29T11:07:28;22.50;99.90
11152;DHT22;5630;49.342;10.802;2023-07-29T11:09:56;22.60;99.90
11152;DHT22;5630;49.342;10.802;2023-07-29T11:12:44;22.60;99.90
11152;DHT22;5630;49.342;10.802;2023-07-29T11:17:57;22.20;99.90
11152;DHT22;5630;49.342;10.802;2023-07-29T11:20:31;22.30;99.90
11152;DHT22;5630;49.342;10.802;2023-07-29T11:23:01;22.20;99.90
11152;DHT22;5630;49.342;10.802;2023-07-29T11:25:28;22.00;99.90
11152;DHT22;5630;49.342;10.802;2023-07-29T11:27:56;21.80;99.90
11152;DHT22;5630;49.342;10.802;2023-07-29T11:30:22;21.60;99.90
11152;DHT22;5630;49.342;10.802;2023-07-29T11:32:49;21.40;99.90
11152;DHT22;5630;49.342;10.802;2023-07-29T11:35:17;21.50;99.90
11152;DHT22;5630;49.342;10.802;2023-07-29T11:37:48;21.30;99.90
11152;DHT22;5630;49.342;10.802;2023-07-29T11:40:19;21.40;99.90
11152;DHT22;5630;49.342;10.802;2023-07-29T11:42:46;21.20;99.90
11152;DHT22;5630;49.342;10.802;2023-07-29T11:45:13;21.20;99.90
11152;DHT22;5630;49.342;10.802;2023-07-29T11:47:39;21.20;99.90
11152;DHT22;5630;49.342;10.802;2023-07-29T11:50:06;21.20;99.90
11152;DHT22;5630;49.342;10.802;2023-07-29T11:52:38;21.20;99.90
11152;DHT22;5630;49.342;10.802;2023-07-29T11:55:05;21.30;99.90
11152;DHT22;5630;49.342;10.802;2023-07-29T11:57:33;21.30;99.90
11152;DHT22;5630;49.342;10.802;2023-07-29T12:00:02;21.40;99.90
11152;DHT22;5630;49.342;10.802;2023-07-29T12:02:29;21.50;99.90
11152;DHT22;5630;49.342;10.802;2023-07-29T12:04:55;21.60;99.90
11152;DHT22;5630;49.342;10.802;2023-07-29T12:07:22;21.70;99.90
11152;DHT22;5630;49.342;10.802;2023-07-29T12:09:49;22.10;99.90
11152;DHT22;5630;49.342;10.802;2023-07-29T12:12:15;22.40;99.90
11152;DHT22;5630;49.342;10.802;2023-07-29T12:14:44;22.70;99.90
11152;DHT22;5630;49.342;10.802;2023-07-29T12:17:10;22.90;99.90
11152;DHT22;5630;49.342;10.802;2023-07-29T12:19:37;23.00;99.90
11152;DHT22;5630;49.342;10.802;2023-07-29T12:22:04;23.10;99.90
11152;DHT22;5630;49.342;10.802;2023-07-29T12:24:31;23.30;99.90
11152;DHT22;5630;49.342;10.802;2023-07-29T12:26:56;23.40;99.90
11152;DHT22;5630;49.342;10.802;2023-07-29T12:29:22;23.70;99.90
11152;DHT22;5630;49.342;10.802;2023-07-29T12:34:28;23.70;99.90
11152;DHT22;5630;49.342;10.802;2023-07-29T12:36:57;23.80;99.90
11152;DHT22;5630;49.342;10.802;2023-07-29T12:39:25;24.00;99.90
11152;DHT22;5630;49.342;10.802;2023-07-29T12:41:53;24.10;99.90
11152;DHT22;5630;49.342;10.802;2023-07-29T12:44:19;24.20;99.90
11152;DHT22;5630;49.342;10.802;2023-07-29T12:46:45;24.30;99.90
11152;DHT22;5630;49.342;10.802;2023-07-29T12:49:11;24.40;99.90
11152;DHT22;5630;49.342;10.802;2023-07-29T12:51:37;24.60;99.90
11152;DHT22;5630;49.342;10.802;2023-07-29T12:54:03;24.70;99.90
11152;DHT22;5630;49.342;10.802;2023-07-29T12:56:30;24.60;99.90
11152;DHT22;5630;49.342;10.802;2023-07-29T12:58:56;24.40;99.90
11152;DHT22;5630;49.342;10.802;2023-07-29T13:01:23;24.30;99.90
11152;DHT22;5630;49.342;10.802;2023-07-29T13:03:48;24.20;99.90
11152;DHT22;5630;49.342;10.802;2023-07-29T13:06:14;24.40;99.90
11152;DHT22;5630;49.342;10.802;2023-07-29T13:08:41;24.60;99.90
11152;DHT22;5630;49.342;10.802;2023-07-29T13:11:07;24.60;99.90
11152;DHT22;5630;49.342;10.802;2023-07-29T13:13:33;24.60;99.90
11152;DHT22;5630;49.342;10.802;2023-07-29T13:15:59;24.50;99.90
11152;DHT22;5630;49.342;10.802;2023-07-29T13:18:26;24.30;99.90
11152;DHT22;5630;49.342;10.802;2023-07-29T13:20:52;24.40;99.90
11152;DHT22;5630;49.342;10.802;2023-07-29T13:23:18;24.40;99.90
11152;DHT22;5630;49.342;10.802;2023-07-29T13:25:43;24.40;99.90
11152;DHT22;5630;49.342;10.802;2023-07-29T13:28:10;24.40;99.90
11152;DHT22;5630;49.342;10.802;2023-07-29T13:30:36;24.40;99.90
11152;DHT22;5630;49.342;10.802;2023-07-29T13:33:01;24.20;99.90
11152;DHT22;5630;49.342;10.802;2023-07-29T13:35:27;24.20;99.90
11152;DHT22;5630;49.342;10.802;2023-07-29T13:37:53;24.10;99.90
11152;DHT22;5630;49.342;10.802;2023-07-29T13:40:19;24.30;99.90
11152;DHT22;5630;49.342;10.802;2023-07-29T13:42:44;24.40;99.90
11152;DHT22;5630;49.342;10.802;2023-07-29T13:45:10;24.50;99.90
11152;DHT22;5630;49.342;10.802;2023-07-29T13:47:36;24.50;99.90
11152;DHT22;5630;49.342;10.802;2023-07-29T13:50:02;24.70;99.90
11152;DHT22;5630;49.342;10.802;2023-07-29T13:52:28;24.50;99.90
11152;DHT22;5630;49.342;10.802;2023-07-29T13:54:54;24.70;99.90
11152;DHT22;5630;49.342;10.802;2023-07-29T13:57:19;24.60;99.90
11152;DHT22;5630;49.342;10.802;2023-07-29T13:59:45;24.50;99.90
11152;DHT22;5630;49.342;10.802;2023-07-29T14:02:10;24.50;99.90
11152;DHT22;5630;49.342;10.802;2023-07-29T14:04:36;24.60;99.90
11152;DHT22;5630;49.342;10.802;2023-07-29T14:07:02;24.70;99.90
11152;DHT22;5630;49.342;10.802;2023-07-29T14:09:27;24.80;99.90
11152;DHT22;5630;49.342;10.802;2023-07-29T14:11:56;24.80;99.90
11152;DHT22;5630;49.342;10.802;2023-07-29T14:14:22;24.80;99.90
11152;DHT22;5630;49.342;10.802;2023-07-29T14:16:47;24.80;99.90
11152;DHT22;5630;49.342;10.802;2023-07-29T14:19:14;24.90;99.90
11152;DHT22;5630;49.342;10.802;2023-07-29T14:21:40;24.80;99.90
11152;DHT22;5630;49.342;10.802;2023-07-29T14:24:06;24.80;99.90
11152;DHT22;5630;49.342;10.802;2023-07-29T14:26:31;24.60;99.90
11152;DHT22;5630;49.342;10.802;2023-07-29T14:28:57;24.60;99.90
11152;DHT22;5630;49.342;10.802;2023-07-29T14:31:23;24.40;99.90
11152;DHT22;5630;49.342;10.802;2023-07-29T14:33:48;24.40;99.90
11152;DHT22;5630;49.342;10.802;2023-07-29T14:36:17;24.30;99.90
11152;DHT22;5630;49.342;10.802;2023-07-29T14:38:42;24.30;99.90
11152;DHT22;5630;49.342;10.802;2023-07-29T14:41:08;24.30;99.90
11152;DHT22;5630;49.342;10.802;2023-07-29T14:43:34;24.20;99.90
11152;DHT22;5630;49.342;10.802;2023-07-29T14:46:01;24.30;99.90
11152;DHT22;5630;49.342;10.802;2023-07-29T14:48:27;24.20;99.90
11152;DHT22;5630;49.342;10.802;2023-07-29T14:50:52;24.20;99.90
11152;DHT22;5630;49.342;10.802;2023-07-29T14:53:18;24.40;99.90
11152;DHT22;5630;49.342;10.802;2023-07-29T14:55:44;24.50;99.90
11152;DHT22;5630;49.342;10.802;2023-07-29T14:58:09;24.70;99.90
11152;DHT22;5630;49.342;10.802;2023-07-29T15:00:35;24.80;99.90
11152;DHT22;5630;49.342;10.802;2023-07-29T15:03:01;24.60;99.90
11152;DHT22;5630;49.342;10.802;2023-07-29T15:05:26;24.60;99.90
11152;DHT22;5630;49.342;10.802;2023-07-29T15:07:52;24.70;99.90
11152;DHT22;5630;49.342;10.802;2023-07-29T15:10:17;24.60;99.90
11152;DHT22;5630;49.342;10.802;2023-07-29T15:12:44;24.60;99.90
11152;DHT22;5630;49.342;10.802;2023-07-29T15:15:11;24.40;99.90
11152;DHT22;5630;49.342;10.802;2023-07-29T15:17:37;24.50;99.90
11152;DHT22;5630;49.342;10.802;2023-07-29T15:20:03;24.50;99.90
11152;DHT22;5630;49.342;10.802;2023-07-29T15:22:32;24.40;99.90
11152;DHT22;5630;49.342;10.802;2023-07-29T15:24:58;24.50;99.90
11152;DHT22;5630;49.342;10.802;2023-07-29T15:27:27;24.50;99.90
11152;DHT22;5630;49.342;10.802;2023-07-29T15:29:53;24.40;99.90
11152;DHT22;5630;49.342;10.802;2023-07-29T15:32:19;24.50;99.90
11152;DHT22;5630;49.342;10.802;2023-07-29T15:34:44;24.40;99.90
11152;DHT22;5630;49.342;10.802;2023-07-29T15:37:10;24.50;99.90
11152;DHT22;5630;49.342;10.802;2023-07-29T15:39:36;24.50;99.90
11152;DHT22;5630;49.342;10.802;2023-07-29T15:42:02;24.60;99.90